createdAt,value
2018-11-06T00:00:51.758Z,24.53
2018-11-06T00:03:26.893Z,24.83
2018-11-06T00:05:57.412Z,21.97
2018-11-06T00:08:27.908Z,22.27
2018-11-06T00:10:58.418Z,22.33
2018-11-06T00:13:28.838Z,21.43
2018-11-06T00:15:59.257Z,22.43
2018-11-06T00:18:29.882Z,22.97
2018-11-06T00:21:00.482Z,22.43
2018-11-06T00:23:31.017Z,22.33
2018-11-06T00:26:01.568Z,21.37
2018-11-06T00:28:31.939Z,21.93
2018-11-06T00:31:02.479Z,22.23
2018-11-06T00:33:33.313Z,22.40
2018-11-06T00:36:03.878Z,23.27
2018-11-06T00:38:34.283Z,23.33
2018-11-06T00:41:04.923Z,23.80
2018-11-06T00:43:35.298Z,24.57
2018-11-06T00:46:05.882Z,24.30
2018-11-06T00:48:36.272Z,25.03
2018-11-06T00:51:06.893Z,25.20
2018-11-06T00:53:37.389Z,25.67
2018-11-06T00:56:08.013Z,25.13
2018-11-06T00:58:38.525Z,26.90
2018-11-06T01:01:09.133Z,25.57
2018-11-06T01:03:44.343Z,25.20
2018-11-06T01:06:14.818Z,26.13
2018-11-06T01:08:45.217Z,25.53
2018-11-06T01:11:15.723Z,29.67
2018-11-06T01:13:46.204Z,26.07
2018-11-06T01:16:16.764Z,27.47
2018-11-06T01:18:47.373Z,25.13
2018-11-06T01:21:17.838Z,27.03
2018-11-06T01:23:48.247Z,25.13
2018-11-06T01:26:18.712Z,24.50
2018-11-06T01:28:49.252Z,25.53
2018-11-06T01:31:19.728Z,25.43
2018-11-06T01:33:50.523Z,23.97
2018-11-06T01:36:20.953Z,26.00
2018-11-06T01:38:51.343Z,25.27
2018-11-06T01:41:21.928Z,25.07
2018-11-06T01:43:52.273Z,23.43
2018-11-06T01:46:22.616Z,24.90
2018-11-06T01:48:53.289Z,25.93
2018-11-06T01:51:23.868Z,25.63
2018-11-06T01:53:54.284Z,24.40
2018-11-06T01:56:24.708Z,22.97
2018-11-06T01:58:55.106Z,22.53
2018-11-06T02:01:25.862Z,21.20
2018-11-06T02:03:56.308Z,22.93
2018-11-06T02:06:26.648Z,22.60
2018-11-06T02:08:57.182Z,21.47
2018-11-06T02:11:27.598Z,20.30
2018-11-06T02:13:58.063Z,22.20
2018-11-06T02:16:28.482Z,22.37
2018-11-06T02:18:58.991Z,24.60
2018-11-06T02:21:29.458Z,25.27
2018-11-06T02:23:59.904Z,24.33
2018-11-06T02:26:30.273Z,24.43
2018-11-06T02:29:00.774Z,23.30
2018-11-06T02:31:31.272Z,25.30
2018-11-06T02:34:02.239Z,25.83
2018-11-06T02:36:32.885Z,25.73
2018-11-06T02:39:03.483Z,25.47
2018-11-06T02:41:33.871Z,25.93
2018-11-06T02:44:04.422Z,25.70
2018-11-06T02:46:34.890Z,27.27
2018-11-06T02:49:05.219Z,27.33
2018-11-06T02:51:35.657Z,25.87
2018-11-06T02:54:06.323Z,27.20
2018-11-06T02:56:36.776Z,27.67
2018-11-06T02:59:07.198Z,30.30
2018-11-06T03:01:37.572Z,30.73
2018-11-06T03:04:08.153Z,31.40
2018-11-06T03:06:38.623Z,30.00
2018-11-06T03:09:09.725Z,21.13
2018-11-06T03:11:40.192Z,30.90
2018-11-06T03:14:10.566Z,32.20
2018-11-06T03:16:41.012Z,31.77
2018-11-06T03:19:11.417Z,31.37
2018-11-06T03:21:41.982Z,32.30
2018-11-06T03:24:12.502Z,33.97
2018-11-06T03:26:42.925Z,33.77
2018-11-06T03:29:13.348Z,34.17
2018-11-06T03:31:43.778Z,31.10
2018-11-06T03:34:14.528Z,34.83
2018-11-06T03:36:45.063Z,31.23
2018-11-06T03:39:15.627Z,33.57
2018-11-06T03:41:46.138Z,32.97
2018-11-06T03:44:16.610Z,32.80
2018-11-06T03:46:47.083Z,32.70
2018-11-06T03:49:17.473Z,33.50
2018-11-06T03:51:47.983Z,32.63
2018-11-06T03:54:18.438Z,31.10
2018-11-06T03:56:48.907Z,28.27
2018-11-06T03:59:19.648Z,30.97
2018-11-06T04:01:50.072Z,28.10
2018-11-06T04:04:20.539Z,23.30
2018-11-06T04:06:50.982Z,24.10
2018-11-06T04:09:21.538Z,24.50
2018-11-06T04:11:52.088Z,23.87
2018-11-06T04:14:22.888Z,26.30
2018-11-06T04:16:53.417Z,23.10
2018-11-06T04:19:23.877Z,23.40
2018-11-06T04:21:54.343Z,24.10
2018-11-06T04:24:25.863Z,22.03
2018-11-06T04:26:56.396Z,24.57
2018-11-06T04:29:26.923Z,25.67
2018-11-06T04:31:57.408Z,24.97
2018-11-06T04:34:28.298Z,23.37
2018-11-06T04:36:58.748Z,24.77
2018-11-06T04:39:29.243Z,24.30
2018-11-06T04:42:00.474Z,27.00
2018-11-06T04:44:30.914Z,28.87
2018-11-06T04:47:01.429Z,28.13
2018-11-06T04:49:31.828Z,27.00
2018-11-06T04:52:02.338Z,28.00
2018-11-06T04:54:32.988Z,30.67
2018-11-06T04:57:03.668Z,31.50
2018-11-06T04:59:34.122Z,27.90
2018-11-06T05:02:04.767Z,29.80
2018-11-06T05:04:35.148Z,33.37
2018-11-06T05:07:05.659Z,32.43
2018-11-06T05:09:36.073Z,35.07
2018-11-06T05:12:06.709Z,33.87
2018-11-06T05:14:37.042Z,32.03
2018-11-06T05:17:07.729Z,31.77
2018-11-06T05:19:38.001Z,31.00
2018-11-06T05:22:08.911Z,26.90
2018-11-06T05:24:39.273Z,28.77
2018-11-06T05:27:09.811Z,27.47
2018-11-06T05:29:40.228Z,24.40
2018-11-06T05:32:10.618Z,24.00
2018-11-06T05:34:41.621Z,24.60
2018-11-06T05:37:11.988Z,25.43
2018-11-06T05:39:52.463Z,25.47
2018-11-06T05:42:23.014Z,28.50
2018-11-06T05:44:53.399Z,32.63
2018-11-06T05:47:23.973Z,33.97
2018-11-06T05:49:54.348Z,34.27
2018-11-06T05:52:24.873Z,33.20
2018-11-06T05:54:55.233Z,31.00
2018-11-06T05:57:25.938Z,32.50
2018-11-06T05:59:56.442Z,28.07
2018-11-06T06:02:27.054Z,26.33
2018-11-06T06:04:57.474Z,27.77
2018-11-06T06:07:28.055Z,26.80
2018-11-06T06:09:58.698Z,26.27
2018-11-06T06:12:29.503Z,27.10
2018-11-06T06:15:00.813Z,26.70
2018-11-06T06:17:31.342Z,26.97
2018-11-06T06:20:01.705Z,29.83
2018-11-06T06:22:32.352Z,28.73
2018-11-06T06:25:02.773Z,27.00
2018-11-06T06:27:33.273Z,25.93
2018-11-06T06:30:03.713Z,24.30
2018-11-06T06:32:34.529Z,25.23
2018-11-06T06:35:05.331Z,26.60
2018-11-06T06:37:35.918Z,24.00
2018-11-06T06:40:07.018Z,24.00
2018-11-06T06:42:37.607Z,23.47
2018-11-06T06:45:11.113Z,22.17
2018-11-06T06:47:41.877Z,22.97
2018-11-06T06:50:14.328Z,24.80
2018-11-06T06:52:45.423Z,24.40
2018-11-06T06:55:16.869Z,26.63
2018-11-06T06:57:48.562Z,26.17
2018-11-06T07:00:20.477Z,29.23
2018-11-06T07:02:51.124Z,28.23
2018-11-06T07:05:22.932Z,28.07
2018-11-06T07:07:53.588Z,30.77
2018-11-06T07:10:24.707Z,31.30
2018-11-06T07:12:56.092Z,32.20
2018-11-06T07:15:26.884Z,31.77
2018-11-06T07:17:57.485Z,34.30
2018-11-06T07:20:28.028Z,33.50
2018-11-06T07:22:58.627Z,32.23
2018-11-06T07:25:29.348Z,31.77
2018-11-06T07:28:00.176Z,30.70
2018-11-06T07:30:30.777Z,32.20
2018-11-06T07:33:01.590Z,32.90
2018-11-06T07:35:32.692Z,33.33
2018-11-06T07:38:03.243Z,30.30
2018-11-06T07:40:33.784Z,30.27
2018-11-06T07:43:04.418Z,31.70
2018-11-06T07:45:34.883Z,30.20
2018-11-06T07:48:05.372Z,32.37
2018-11-06T07:50:35.797Z,31.27
2018-11-06T07:53:06.354Z,30.73
2018-11-06T07:55:36.703Z,31.10
2018-11-06T07:58:07.208Z,29.47
2018-11-06T08:00:37.627Z,28.23
2018-11-06T08:03:08.258Z,26.27
2018-11-06T08:05:38.652Z,26.63
2018-11-06T08:08:10.038Z,24.40
2018-11-06T08:10:40.658Z,26.30
2018-11-06T08:13:11.252Z,26.33
2018-11-06T08:15:41.662Z,26.23
2018-11-06T08:18:12.287Z,26.60
2018-11-06T08:20:43.863Z,27.40
2018-11-06T08:23:14.283Z,26.80
2018-11-06T08:25:45.533Z,29.83
2018-11-06T08:28:16.051Z,30.23
2018-11-06T08:30:46.677Z,29.23
2018-11-06T08:33:17.186Z,28.97
2018-11-06T08:35:48.152Z,28.47
2018-11-06T08:38:18.992Z,26.90
2018-11-06T08:40:49.387Z,26.87
2018-11-06T08:43:20.124Z,27.70
2018-11-06T08:45:50.597Z,25.93
2018-11-06T08:48:21.194Z,26.93
2018-11-06T08:50:51.562Z,27.03
2018-11-06T08:53:22.297Z,27.00
2018-11-06T08:55:52.847Z,25.77
2018-11-06T08:58:23.383Z,25.57
2018-11-06T09:00:53.732Z,24.50
2018-11-06T09:03:24.283Z,23.50
2018-11-06T09:05:54.675Z,24.30
2018-11-06T09:08:25.228Z,23.00
2018-11-06T09:10:55.673Z,22.33
2018-11-06T09:13:26.365Z,22.60
2018-11-06T09:15:56.794Z,23.57
2018-11-06T09:18:27.252Z,22.63
2018-11-06T09:20:57.711Z,20.50
2018-11-06T09:23:28.342Z,20.73
2018-11-06T09:25:58.797Z,19.80
2018-11-06T09:28:29.272Z,20.23
2018-11-06T09:30:59.723Z,20.80
2018-11-06T09:33:30.421Z,20.60
2018-11-06T09:36:01.223Z,22.77
2018-11-06T09:38:31.852Z,23.50
2018-11-06T09:41:02.385Z,21.33
2018-11-06T09:43:33.117Z,21.40
2018-11-06T09:46:03.600Z,21.63
2018-11-06T09:48:34.423Z,19.80
2018-11-06T09:51:05.081Z,20.23
2018-11-06T09:53:35.837Z,20.20
2018-11-06T09:56:06.522Z,17.47
2018-11-06T09:58:37.162Z,19.23
2018-11-06T10:01:07.872Z,19.40
2018-11-06T10:03:38.794Z,17.23
2018-11-06T10:06:09.338Z,15.60
2018-11-06T10:08:39.857Z,17.77
2018-11-06T10:11:10.154Z,18.13
2018-11-06T10:13:40.962Z,16.53
2018-11-06T10:16:11.498Z,16.50
2018-11-06T10:18:42.202Z,15.63
2018-11-06T10:21:12.524Z,15.00
2018-11-06T10:23:43.067Z,13.73
2018-11-06T10:26:13.402Z,13.53
2018-11-06T10:28:43.916Z,14.10
2018-11-06T10:31:14.440Z,13.40
2018-11-06T10:33:45.038Z,12.40
2018-11-06T10:36:15.948Z,12.40
2018-11-06T10:38:46.407Z,11.17
2018-11-06T10:41:16.887Z,12.23
2018-11-06T10:43:47.716Z,11.63
2018-11-06T10:46:18.204Z,12.33
2018-11-06T10:48:48.762Z,12.13
2018-11-06T10:51:19.097Z,10.37
2018-11-06T10:53:49.936Z,11.57
2018-11-06T10:56:20.357Z,11.67
2018-11-06T10:58:50.882Z,12.03
2018-11-06T11:01:26.084Z,11.60
2018-11-06T11:04:01.496Z,11.63
2018-11-06T11:06:32.123Z,11.97
2018-11-06T11:09:02.703Z,11.23
2018-11-06T11:11:33.522Z,11.83
2018-11-06T11:14:04.297Z,11.30
2018-11-06T11:16:34.907Z,11.10
2018-11-06T11:19:05.882Z,11.10
2018-11-06T11:21:36.197Z,12.23
2018-11-06T11:24:06.792Z,11.57
2018-11-06T11:26:37.297Z,11.53
2018-11-06T11:29:08.213Z,11.77
2018-11-06T11:31:38.912Z,12.20
2018-11-06T11:34:09.362Z,11.37
2018-11-06T11:36:40.238Z,10.77
2018-11-06T11:39:11.212Z,11.20
2018-11-06T11:41:41.898Z,11.30
2018-11-06T11:44:12.522Z,12.53
2018-11-06T11:46:43.252Z,10.60
2018-11-06T11:49:13.797Z,10.43
2018-11-06T11:51:44.227Z,9.67
2018-11-06T11:54:15.012Z,10.17
2018-11-06T11:56:46.466Z,9.90
2018-11-06T11:59:17.077Z,9.77
2018-11-06T12:01:47.697Z,10.93
2018-11-06T12:04:18.445Z,11.10
2018-11-06T12:06:49.067Z,10.53
2018-11-06T12:09:19.844Z,9.83
2018-11-06T12:11:50.337Z,10.27
2018-11-06T12:14:20.972Z,10.27
2018-11-06T12:16:51.562Z,11.23
2018-11-06T12:19:22.123Z,10.97
2018-11-06T12:21:52.683Z,9.80
2018-11-06T12:24:23.480Z,10.87
2018-11-06T12:26:54.106Z,11.63
2018-11-06T12:29:24.642Z,10.70
2018-11-06T12:31:55.423Z,11.47
2018-11-06T12:34:26.133Z,10.70
2018-11-06T12:36:57.152Z,13.47
2018-11-06T12:39:27.968Z,11.63
2018-11-06T12:41:58.558Z,13.37
2018-11-06T12:44:29.152Z,13.13
2018-11-06T12:46:59.728Z,13.03
2018-11-06T12:49:30.392Z,13.37
2018-11-06T12:52:01.262Z,12.73
2018-11-06T12:54:32.017Z,13.57
2018-11-06T12:57:02.767Z,12.50
2018-11-06T12:59:33.436Z,13.37
2018-11-06T13:02:04.332Z,13.87
2018-11-06T13:04:35.112Z,12.47
2018-11-06T13:07:05.562Z,13.47
2018-11-06T13:09:36.294Z,14.83
2018-11-06T13:12:07.356Z,14.87
2018-11-06T13:14:37.946Z,14.57
2018-11-06T13:17:08.952Z,16.70
2018-11-06T13:19:39.642Z,16.60
2018-11-06T13:22:10.252Z,17.47
2018-11-06T13:24:41.368Z,16.03
2018-11-06T13:27:11.977Z,15.67
2018-11-06T13:29:42.787Z,14.50
2018-11-06T13:32:13.445Z,12.13
2018-11-06T13:34:44.128Z,14.40
2018-11-06T13:37:15.142Z,14.07
2018-11-06T13:39:45.773Z,13.50
2018-11-06T13:42:16.393Z,15.53
2018-11-06T13:44:47.392Z,15.73
2018-11-06T13:47:18.157Z,17.73
2018-11-06T13:49:48.892Z,19.23
2018-11-06T13:52:19.881Z,17.93
2018-11-06T13:54:50.587Z,18.47
2018-11-06T13:57:21.227Z,19.10
2018-11-06T13:59:51.803Z,18.87
2018-11-06T14:02:22.292Z,18.17
2018-11-06T14:04:52.782Z,19.07
2018-11-06T14:07:23.696Z,17.97
2018-11-06T14:09:54.628Z,18.53
2018-11-06T14:12:25.342Z,18.83
2018-11-06T14:14:55.772Z,16.73
2018-11-06T14:17:26.307Z,18.80
2018-11-06T14:19:56.947Z,16.57
2018-11-06T14:22:27.468Z,19.83
2018-11-06T14:24:58.127Z,17.53
2018-11-06T14:27:28.869Z,18.40
2018-11-06T14:29:59.588Z,17.57
2018-11-06T14:32:30.132Z,17.50
2018-11-06T14:35:00.782Z,16.73
2018-11-06T14:37:31.562Z,15.83
2018-11-06T14:40:02.218Z,16.67
2018-11-06T14:42:33.012Z,15.63
2018-11-06T14:45:03.678Z,16.77
2018-11-06T14:47:34.312Z,17.60
2018-11-06T14:50:05.113Z,16.40
2018-11-06T14:52:36.242Z,17.83
2018-11-06T14:55:07.632Z,18.83
2018-11-06T14:57:38.535Z,16.87
2018-11-06T15:00:13.408Z,17.90
2018-11-06T15:02:46.631Z,18.90
2018-11-06T15:05:17.868Z,18.43
2018-11-06T15:07:48.787Z,17.87
2018-11-06T15:10:19.777Z,18.23
2018-11-06T15:12:50.624Z,19.07
2018-11-06T15:15:21.250Z,20.50
2018-11-06T15:17:51.834Z,20.53
2018-11-06T15:20:23.547Z,18.87
2018-11-06T15:22:54.272Z,21.67
2018-11-06T15:25:25.296Z,20.57
2018-11-06T15:27:56.132Z,21.47
2018-11-06T15:30:26.792Z,21.30
2018-11-06T15:32:57.202Z,21.27
2018-11-06T15:35:28.112Z,19.67
2018-11-06T15:37:59.222Z,19.17
2018-11-06T15:40:30.052Z,19.27
2018-11-06T15:43:00.822Z,18.03
2018-11-06T15:45:31.898Z,19.67
2018-11-06T15:48:02.572Z,19.97
2018-11-06T15:50:33.323Z,19.57
2018-11-06T15:53:03.807Z,22.83
2018-11-06T15:55:34.741Z,26.80
2018-11-06T15:58:05.322Z,26.33
2018-11-06T16:00:36.159Z,29.93
2018-11-06T16:03:06.528Z,29.90
2018-11-06T16:05:37.117Z,29.27
2018-11-06T16:08:08.097Z,30.67
2018-11-06T16:10:38.912Z,31.07
2018-11-06T16:13:09.362Z,29.50
2018-11-06T16:15:39.862Z,29.47
2018-11-06T16:18:10.447Z,27.37
2018-11-06T16:20:41.186Z,25.63
2018-11-06T16:23:11.697Z,26.57
2018-11-06T16:25:42.507Z,23.30
2018-11-06T16:28:13.037Z,25.17
2018-11-06T16:30:43.860Z,24.27
2018-11-06T16:33:14.857Z,27.43
2018-11-06T16:35:45.657Z,28.33
2018-11-06T16:38:16.397Z,27.27
2018-11-06T16:40:47.122Z,28.70
2018-11-06T16:43:17.498Z,29.03
2018-11-06T16:45:48.283Z,26.50
2018-11-06T16:48:18.882Z,26.33
2018-11-06T16:50:49.607Z,26.43
2018-11-06T16:53:20.926Z,28.13
2018-11-06T16:55:51.643Z,30.23
2018-11-06T16:58:22.192Z,30.87
2018-11-06T17:00:52.850Z,30.73
2018-11-06T17:03:23.412Z,33.30
2018-11-06T17:05:53.977Z,31.23
2018-11-06T17:08:24.507Z,31.27
2018-11-06T17:10:55.162Z,29.83
2018-11-06T17:13:25.567Z,30.00
2018-11-06T17:15:56.187Z,30.53
2018-11-06T17:18:29.293Z,30.80
2018-11-06T17:21:02.647Z,30.50
2018-11-06T17:23:35.672Z,31.50
2018-11-06T17:26:08.313Z,30.23
2018-11-06T17:28:42.192Z,30.50
2018-11-06T17:31:21.572Z,29.93
2018-11-06T17:33:54.727Z,32.10
2018-11-06T17:36:30.303Z,33.83
2018-11-06T17:39:11.282Z,31.27
2018-11-06T17:44:22.708Z,34.23
2018-11-06T17:46:55.847Z,33.70
2018-11-06T17:49:29.357Z,33.20
2018-11-06T17:52:01.882Z,32.20
2018-11-06T17:54:34.257Z,32.70
2018-11-06T17:57:06.742Z,32.63
2018-11-06T17:59:39.153Z,33.23
2018-11-06T18:02:09.637Z,33.40
2018-11-06T18:04:43.256Z,32.60
2018-11-06T18:07:14.082Z,31.37
2018-11-06T18:09:45.004Z,33.73
2018-11-06T18:12:15.778Z,36.47
2018-11-06T18:14:46.272Z,36.10
2018-11-06T18:17:17.137Z,34.53
2018-11-06T18:19:47.977Z,36.60
2018-11-06T18:22:21.717Z,33.73
2018-11-06T18:24:52.377Z,34.50
2018-11-06T18:27:22.921Z,32.30
2018-11-06T18:29:53.723Z,33.17
2018-11-06T18:32:24.660Z,33.80
2018-11-06T18:34:56.598Z,34.67
2018-11-06T18:37:27.604Z,33.20
2018-11-06T18:39:58.548Z,34.93
2018-11-06T18:42:29.902Z,34.90
2018-11-06T18:45:00.697Z,33.13
2018-11-06T18:47:31.530Z,31.47
2018-11-06T18:50:02.208Z,34.40
2018-11-06T18:52:32.758Z,34.03
2018-11-06T18:55:03.678Z,31.50
2018-11-06T18:57:34.313Z,30.13
2018-11-06T19:00:06.763Z,26.77
2018-11-06T19:02:37.188Z,29.67
2018-11-06T19:05:08.513Z,28.53
2018-11-06T19:07:39.707Z,31.03
2018-11-06T19:10:12.031Z,29.63
2018-11-06T19:12:42.772Z,31.00
2018-11-06T19:15:16.027Z,30.73
2018-11-06T19:17:47.291Z,30.47
2018-11-06T19:20:18.947Z,30.00
2018-11-06T19:22:49.750Z,27.73
2018-11-06T19:25:20.436Z,28.67
2018-11-06T19:27:51.238Z,28.57
2018-11-06T19:30:24.118Z,27.67
2018-11-06T19:32:55.127Z,28.07
2018-11-06T19:35:25.957Z,27.63
2018-11-06T19:37:57.312Z,29.50
2018-11-06T19:40:28.473Z,29.47
2018-11-06T19:42:59.177Z,30.57
2018-11-06T19:45:29.882Z,30.27
2018-11-06T19:48:00.397Z,29.20
2018-11-06T19:50:31.113Z,30.23
2018-11-06T19:53:01.689Z,30.17
2018-11-06T19:55:32.393Z,29.47
2018-11-06T19:58:03.248Z,29.03
2018-11-06T20:00:33.990Z,29.43
2018-11-06T20:03:04.725Z,30.23
2018-11-06T20:05:35.398Z,29.17
2018-11-06T20:08:06.487Z,29.23
2018-11-06T20:10:37.268Z,29.53
2018-11-06T20:13:08.486Z,29.97
2018-11-06T20:15:39.242Z,29.07
2018-11-06T20:18:10.019Z,29.23
2018-11-06T20:20:40.844Z,28.43
2018-11-06T20:23:12.310Z,29.20
2018-11-06T20:25:43.568Z,29.57
2018-11-06T20:28:14.818Z,29.87
2018-11-06T20:30:45.648Z,28.77
2018-11-06T20:33:16.464Z,29.40
2018-11-06T20:35:47.868Z,30.43
2018-11-06T20:38:19.823Z,29.30
2018-11-06T20:40:51.723Z,30.70
2018-11-06T20:43:22.753Z,30.73
2018-11-06T20:45:53.727Z,30.77
2018-11-06T20:48:26.083Z,31.57
2018-11-06T20:50:56.837Z,30.33
2018-11-06T20:53:29.108Z,32.73
2018-11-06T20:56:06.751Z,30.07
2018-11-06T20:58:39.867Z,31.03
2018-11-06T21:01:11.824Z,33.20
2018-11-06T21:03:42.972Z,32.80
2018-11-06T21:06:13.652Z,32.30
2018-11-06T21:08:45.133Z,31.93
2018-11-06T21:11:18.212Z,33.07
2018-11-06T21:13:48.886Z,34.73
2018-11-06T21:16:19.554Z,33.43
2018-11-06T21:18:51.337Z,35.13
2018-11-06T21:21:22.487Z,33.40
2018-11-06T21:23:53.107Z,34.47
2018-11-06T21:26:23.919Z,33.93
2018-11-06T21:28:54.612Z,36.67
2018-11-06T21:31:25.346Z,35.30
2018-11-06T21:33:56.843Z,34.33
2018-11-06T21:36:27.458Z,34.97
2018-11-06T21:38:58.154Z,35.30
2018-11-06T21:41:29.453Z,35.27
2018-11-06T21:44:00.333Z,34.23
2018-11-06T21:46:31.641Z,35.90
2018-11-06T21:49:02.868Z,35.40
2018-11-06T21:51:34.307Z,35.23
2018-11-06T21:54:05.397Z,37.00
2018-11-06T21:56:37.237Z,33.63
2018-11-06T21:59:07.899Z,34.83
2018-11-06T22:01:38.947Z,36.40
2018-11-06T22:04:09.537Z,33.23
2018-11-06T22:06:40.312Z,33.77
2018-11-06T22:09:11.283Z,32.37
2018-11-06T22:11:42.048Z,32.57
2018-11-06T22:14:12.817Z,32.90
2018-11-06T22:16:44.077Z,34.53
2018-11-06T22:19:14.622Z,30.87
2018-11-06T22:21:46.218Z,30.63
2018-11-06T22:24:16.837Z,32.37
2018-11-06T22:26:47.612Z,28.93
2018-11-06T22:29:18.173Z,29.53
2018-11-06T22:31:48.996Z,32.60
2018-11-06T22:34:19.532Z,31.43
2018-11-06T22:36:50.524Z,31.27
2018-11-06T22:39:21.278Z,30.57
2018-11-06T22:41:52.317Z,32.57
2018-11-06T22:44:22.689Z,31.03
2018-11-06T22:46:53.568Z,30.67
2018-11-06T22:49:24.234Z,31.80
2018-11-06T22:51:54.932Z,31.17
2018-11-06T22:54:25.582Z,35.27
2018-11-06T22:56:56.313Z,35.27
2018-11-06T22:59:26.863Z,33.00
2018-11-06T23:01:57.510Z,31.77
2018-11-06T23:04:28.047Z,31.60
2018-11-06T23:06:58.885Z,31.03
2018-11-06T23:09:29.477Z,32.43
2018-11-06T23:12:00.122Z,31.57
2018-11-06T23:14:30.937Z,37.00
2018-11-06T23:17:01.586Z,37.73
2018-11-06T23:19:31.963Z,34.53
2018-11-06T23:22:02.785Z,32.03
2018-11-06T23:24:33.392Z,32.67
2018-11-06T23:27:04.622Z,32.53
2018-11-06T23:29:35.241Z,36.23
2018-11-06T23:32:06.123Z,34.60
2018-11-06T23:34:36.611Z,34.10
2018-11-06T23:37:07.148Z,41.03
2018-11-06T23:39:37.694Z,41.97
2018-11-06T23:42:08.398Z,32.53
2018-11-06T23:44:38.837Z,58.90
2018-11-06T23:47:09.362Z,43.70
2018-11-06T23:49:39.878Z,38.00
2018-11-06T23:52:10.548Z,36.47
2018-11-06T23:54:41.217Z,38.83
2018-11-06T23:57:11.912Z,39.50
2018-11-06T23:59:42.248Z,41.23
